sensor_id;sensor_type;location;lat;lon;timestamp;temperature;humidity
9167;DHT22;4618;48.818;9.088;2023-06-26T00:01:27;18.60;32.30
9167;DHT22;4618;48.818;9.088;2023-06-26T00:03:57;18.50;33.40
9167;DHT22;4618;48.818;9.088;2023-06-26T00:06:22;18.40;36.40
9167;DHT22;4618;48.818;9.088;2023-06-26T00:08:53;18.40;37.20
9167;DHT22;4618;48.818;9.088;2023-06-26T00:11:19;18.40;38.80
9167;DHT22;4618;48.818;9.088;2023-06-26T00:13:45;18.40;39.50
9167;DHT22;4618;48.818;9.088;2023-06-26T00:16:10;18.20;42.50
9167;DHT22;4618;48.818;9.088;2023-06-26T00:18:36;18.30;43.20
9167;DHT22;4618;48.818;9.088;2023-06-26T00:21:02;18.20;44.50
9167;DHT22;4618;48.818;9.088;2023-06-26T00:23:27;18.30;43.80
9167;DHT22;4618;48.818;9.088;2023-06-26T00:25:53;18.30;44.20
9167;DHT22;4618;48.818;9.088;2023-06-26T00:28:18;18.20;46.60
9167;DHT22;4618;48.818;9.088;2023-06-26T00:30:44;18.30;48.60
9167;DHT22;4618;48.818;9.088;2023-06-26T00:33:10;18.30;74.90
9167;DHT22;4618;48.818;9.088;2023-06-26T00:35:35;18.20;53.00
9167;DHT22;4618;48.818;9.088;2023-06-26T00:38:01;18.30;55.50
9167;DHT22;4618;48.818;9.088;2023-06-26T00:40:27;18.20;62.60
9167;DHT22;4618;48.818;9.088;2023-06-26T00:42:53;18.10;64.20
9167;DHT22;4618;48.818;9.088;2023-06-26T00:45:19;18.00;71.50
9167;DHT22;4618;48.818;9.088;2023-06-26T00:47:44;18.10;74.60
9167;DHT22;4618;48.818;9.088;2023-06-26T00:50:10;18.20;67.60
9167;DHT22;4618;48.818;9.088;2023-06-26T00:52:37;18.30;69.50
9167;DHT22;4618;48.818;9.088;2023-06-26T00:55:03;18.20;91.60
9167;DHT22;4618;48.818;9.088;2023-06-26T00:57:30;18.20;65.50
9167;DHT22;4618;48.818;9.088;2023-06-26T00:59:56;18.10;68.30
9167;DHT22;4618;48.818;9.088;2023-06-26T01:02:22;18.20;64.50
9167;DHT22;4618;48.818;9.088;2023-06-26T01:04:49;18.20;67.30
9167;DHT22;4618;48.818;9.088;2023-06-26T01:07:16;18.30;61.50
9167;DHT22;4618;48.818;9.088;2023-06-26T01:09:44;18.20;63.20
9167;DHT22;4618;48.818;9.088;2023-06-26T01:12:11;18.20;66.10
9167;DHT22;4618;48.818;9.088;2023-06-26T01:14:37;18.30;65.10
9167;DHT22;4618;48.818;9.088;2023-06-26T01:17:03;18.30;64.00
9167;DHT22;4618;48.818;9.088;2023-06-26T01:19:30;18.20;68.00
9167;DHT22;4618;48.818;9.088;2023-06-26T01:22:06;18.20;70.50
9167;DHT22;4618;48.818;9.088;2023-06-26T01:24:45;18.10;73.60
9167;DHT22;4618;48.818;9.088;2023-06-26T01:27:13;18.00;78.70
9167;DHT22;4618;48.818;9.088;2023-06-26T01:29:40;17.90;85.90
9167;DHT22;4618;48.818;9.088;2023-06-26T01:32:07;17.80;92.60
9167;DHT22;4618;48.818;9.088;2023-06-26T01:34:33;17.80;94.40
9167;DHT22;4618;48.818;9.088;2023-06-26T01:36:59;17.70;97.20
9167;DHT22;4618;48.818;9.088;2023-06-26T01:39:24;17.80;98.70
9167;DHT22;4618;48.818;9.088;2023-06-26T01:41:50;17.70;99.90
9167;DHT22;4618;48.818;9.088;2023-06-26T01:44:35;17.80;97.70
9167;DHT22;4618;48.818;9.088;2023-06-26T01:47:04;17.70;99.90
9167;DHT22;4618;48.818;9.088;2023-06-26T01:52:37;17.70;99.90
9167;DHT22;4618;48.818;9.088;2023-06-26T01:55:12;17.70;99.90
9167;DHT22;4618;48.818;9.088;2023-06-26T01:57:42;17.70;99.90
9167;DHT22;4618;48.818;9.088;2023-06-26T02:00:09;17.50;99.90
9167;DHT22;4618;48.818;9.088;2023-06-26T02:02:36;17.50;99.90
9167;DHT22;4618;48.818;9.088;2023-06-26T02:05:02;17.50;99.90
9167;DHT22;4618;48.818;9.088;2023-06-26T02:07:28;17.50;99.90
9167;DHT22;4618;48.818;9.088;2023-06-26T02:09:54;17.40;99.90
9167;DHT22;4618;48.818;9.088;2023-06-26T02:12:19;17.40;99.90
9167;DHT22;4618;48.818;9.088;2023-06-26T02:14:45;17.50;99.90
9167;DHT22;4618;48.818;9.088;2023-06-26T02:17:10;17.40;99.90
9167;DHT22;4618;48.818;9.088;2023-06-26T02:19:36;17.50;99.90
9167;DHT22;4618;48.818;9.088;2023-06-26T02:22:01;17.40;99.90
9167;DHT22;4618;48.818;9.088;2023-06-26T02:24:27;17.40;99.90
9167;DHT22;4618;48.818;9.088;2023-06-26T02:26:56;17.40;99.90
9167;DHT22;4618;48.818;9.088;2023-06-26T02:29:22;17.40;99.90
9167;DHT22;4618;48.818;9.088;2023-06-26T02:31:48;17.40;99.90
9167;DHT22;4618;48.818;9.088;2023-06-26T02:34:14;17.40;99.90
9167;DHT22;4618;48.818;9.088;2023-06-26T02:36:39;17.40;99.90
9167;DHT22;4618;48.818;9.088;2023-06-26T02:39:05;17.30;99.90
9167;DHT22;4618;48.818;9.088;2023-06-26T02:41:31;17.30;99.90
9167;DHT22;4618;48.818;9.088;2023-06-26T02:43:56;17.30;99.90
9167;DHT22;4618;48.818;9.088;2023-06-26T02:46:22;17.40;99.90
9167;DHT22;4618;48.818;9.088;2023-06-26T02:48:47;17.40;99.90
9167;DHT22;4618;48.818;9.088;2023-06-26T02:51:13;17.30;99.90
9167;DHT22;4618;48.818;9.088;2023-06-26T02:53:39;17.20;99.90
9167;DHT22;4618;48.818;9.088;2023-06-26T02:56:04;17.20;99.90
9167;DHT22;4618;48.818;9.088;2023-06-26T02:58:30;17.30;99.90
9167;DHT22;4618;48.818;9.088;2023-06-26T03:00:55;17.30;99.90
9167;DHT22;4618;48.818;9.088;2023-06-26T03:03:21;17.30;99.90
9167;DHT22;4618;48.818;9.088;2023-06-26T03:05:47;17.20;99.90
9167;DHT22;4618;48.818;9.088;2023-06-26T03:08:12;17.20;99.90
9167;DHT22;4618;48.818;9.088;2023-06-26T03:10:38;17.20;99.90
9167;DHT22;4618;48.818;9.088;2023-06-26T03:13:03;17.20;99.90
9167;DHT22;4618;48.818;9.088;2023-06-26T03:15:29;17.10;99.90
9167;DHT22;4618;48.818;9.088;2023-06-26T03:17:54;17.10;99.90
9167;DHT22;4618;48.818;9.088;2023-06-26T03:20:20;17.00;99.90
9167;DHT22;4618;48.818;9.088;2023-06-26T03:22:45;17.10;99.90
9167;DHT22;4618;48.818;9.088;2023-06-26T03:25:11;17.10;99.90
9167;DHT22;4618;48.818;9.088;2023-06-26T03:27:37;17.10;99.90
9167;DHT22;4618;48.818;9.088;2023-06-26T03:30:02;17.20;99.90
9167;DHT22;4618;48.818;9.088;2023-06-26T03:32:28;17.30;99.90
9167;DHT22;4618;48.818;9.088;2023-06-26T03:34:53;17.50;99.90
9167;DHT22;4618;48.818;9.088;2023-06-26T03:37:19;17.60;99.90
9167;DHT22;4618;48.818;9.088;2023-06-26T03:39:45;17.70;99.90
9167;DHT22;4618;48.818;9.088;2023-06-26T03:42:10;17.70;99.90
9167;DHT22;4618;48.818;9.088;2023-06-26T03:44:36;17.70;99.90
9167;DHT22;4618;48.818;9.088;2023-06-26T03:47:01;17.70;99.90
9167;DHT22;4618;48.818;9.088;2023-06-26T03:49:27;17.70;99.90
9167;DHT22;4618;48.818;9.088;2023-06-26T03:51:52;17.80;99.90
9167;DHT22;4618;48.818;9.088;2023-06-26T03:54:18;17.90;99.90
9167;DHT22;4618;48.818;9.088;2023-06-26T03:56:43;17.80;99.90
9167;DHT22;4618;48.818;9.088;2023-06-26T03:59:10;18.00;99.90
9167;DHT22;4618;48.818;9.088;2023-06-26T04:01:36;18.00;99.90
9167;DHT22;4618;48.818;9.088;2023-06-26T04:04:02;18.20;99.90
9167;DHT22;4618;48.818;9.088;2023-06-26T04:06:28;18.20;99.90
9167;DHT22;4618;48.818;9.088;2023-06-26T04:08:56;18.50;99.90
9167;DHT22;4618;48.818;9.088;2023-06-26T04:11:22;18.50;99.90
9167;DHT22;4618;48.818;9.088;2023-06-26T04:13:48;18.50;99.90
9167;DHT22;4618;48.818;9.088;2023-06-26T04:16:13;18.50;99.90
9167;DHT22;4618;48.818;9.088;2023-06-26T04:18:39;18.70;99.90
9167;DHT22;4618;48.818;9.088;2023-06-26T04:21:09;18.70;99.90
9167;DHT22;4618;48.818;9.088;2023-06-26T04:23:36;18.90;99.90
9167;DHT22;4618;48.818;9.088;2023-06-26T04:26:03;18.90;99.90
9167;DHT22;4618;48.818;9.088;2023-06-26T04:28:30;18.90;99.90
9167;DHT22;4618;48.818;9.088;2023-06-26T04:30:56;19.30;91.70
9167;DHT22;4618;48.818;9.088;2023-06-26T04:33:22;19.40;89.60
9167;DHT22;4618;48.818;9.088;2023-06-26T04:35:49;19.50;81.40
9167;DHT22;4618;48.818;9.088;2023-06-26T04:38:15;19.50;91.50
9167;DHT22;4618;48.818;9.088;2023-06-26T04:40:41;19.30;97.70
9167;DHT22;4618;48.818;9.088;2023-06-26T04:43:06;19.10;99.90
9167;DHT22;4618;48.818;9.088;2023-06-26T04:45:32;18.90;99.90
9167;DHT22;4618;48.818;9.088;2023-06-26T04:47:57;18.80;99.90
9167;DHT22;4618;48.818;9.088;2023-06-26T04:50:26;18.80;99.90
9167;DHT22;4618;48.818;9.088;2023-06-26T04:52:54;18.90;99.90
9167;DHT22;4618;48.818;9.088;2023-06-26T04:55:20;18.90;99.90
9167;DHT22;4618;48.818;9.088;2023-06-26T04:57:47;19.10;99.90
9167;DHT22;4618;48.818;9.088;2023-06-26T05:00:13;19.30;99.90
9167;DHT22;4618;48.818;9.088;2023-06-26T05:02:39;19.40;99.90
9167;DHT22;4618;48.818;9.088;2023-06-26T05:05:05;19.50;99.90
9167;DHT22;4618;48.818;9.088;2023-06-26T05:07:30;19.50;99.90
9167;DHT22;4618;48.818;9.088;2023-06-26T05:09:56;19.60;99.90
9167;DHT22;4618;48.818;9.088;2023-06-26T05:12:21;19.60;99.90
9167;DHT22;4618;48.818;9.088;2023-06-26T05:14:47;19.80;99.90
9167;DHT22;4618;48.818;9.088;2023-06-26T05:17:16;19.90;99.90
9167;DHT22;4618;48.818;9.088;2023-06-26T05:19:41;20.00;99.90
9167;DHT22;4618;48.818;9.088;2023-06-26T05:22:07;20.10;99.90
9167;DHT22;4618;48.818;9.088;2023-06-26T05:24:37;20.20;99.90
9167;DHT22;4618;48.818;9.088;2023-06-26T05:27:03;20.40;99.90
9167;DHT22;4618;48.818;9.088;2023-06-26T05:29:30;20.50;99.90
9167;DHT22;4618;48.818;9.088;2023-06-26T05:31:57;20.60;99.90
9167;DHT22;4618;48.818;9.088;2023-06-26T05:34:23;20.90;99.90
9167;DHT22;4618;48.818;9.088;2023-06-26T05:36:51;21.10;99.90
9167;DHT22;4618;48.818;9.088;2023-06-26T05:39:17;21.20;98.30
9167;DHT22;4618;48.818;9.088;2023-06-26T05:41:46;21.40;94.40
9167;DHT22;4618;48.818;9.088;2023-06-26T05:44:12;21.60;85.90
9167;DHT22;4618;48.818;9.088;2023-06-26T05:46:38;21.80;72.90
9167;DHT22;4618;48.818;9.088;2023-06-26T05:49:03;22.00;69.60
9167;DHT22;4618;48.818;9.088;2023-06-26T05:51:29;22.10;66.00
9167;DHT22;4618;48.818;9.088;2023-06-26T05:53:55;22.20;67.80
9167;DHT22;4618;48.818;9.088;2023-06-26T05:56:21;22.30;65.40
9167;DHT22;4618;48.818;9.088;2023-06-26T05:58:47;22.30;60.80
9167;DHT22;4618;48.818;9.088;2023-06-26T06:01:13;22.50;59.30
9167;DHT22;4618;48.818;9.088;2023-06-26T06:03:39;22.60;56.40
9167;DHT22;4618;48.818;9.088;2023-06-26T06:06:05;22.70;56.30
9167;DHT22;4618;48.818;9.088;2023-06-26T06:08:31;22.70;54.80
9167;DHT22;4618;48.818;9.088;2023-06-26T06:10:56;22.80;53.60
9167;DHT22;4618;48.818;9.088;2023-06-26T06:13:22;22.90;53.30
9167;DHT22;4618;48.818;9.088;2023-06-26T06:15:47;22.90;51.90
9167;DHT22;4618;48.818;9.088;2023-06-26T06:18:13;23.00;51.10
9167;DHT22;4618;48.818;9.088;2023-06-26T06:20:38;23.10;50.00
9167;DHT22;4618;48.818;9.088;2023-06-26T06:23:04;23.20;45.80
9167;DHT22;4618;48.818;9.088;2023-06-26T06:25:29;23.30;42.80
9167;DHT22;4618;48.818;9.088;2023-06-26T06:27:55;23.50;40.60
9167;DHT22;4618;48.818;9.088;2023-06-26T06:30:21;23.60;39.00
9167;DHT22;4618;48.818;9.088;2023-06-26T06:32:46;23.60;39.00
9167;DHT22;4618;48.818;9.088;2023-06-26T06:35:17;23.60;36.30
9167;DHT22;4618;48.818;9.088;2023-06-26T06:37:42;23.80;34.40
9167;DHT22;4618;48.818;9.088;2023-06-26T06:40:09;24.00;32.90
9167;DHT22;4618;48.818;9.088;2023-06-26T06:42:35;24.20;30.30
9167;DHT22;4618;48.818;9.088;2023-06-26T06:45:04;24.40;28.10
9167;DHT22;4618;48.818;9.088;2023-06-26T06:47:31;24.60;27.50
9167;DHT22;4618;48.818;9.088;2023-06-26T06:49:56;24.60;24.20
9167;DHT22;4618;48.818;9.088;2023-06-26T06:52:22;24.70;22.50
9167;DHT22;4618;48.818;9.088;2023-06-26T06:54:52;24.80;19.20
9167;DHT22;4618;48.818;9.088;2023-06-26T06:57:18;24.80;17.40
9167;DHT22;4618;48.818;9.088;2023-06-26T06:59:44;25.00;16.00
9167;DHT22;4618;48.818;9.088;2023-06-26T07:02:10;25.00;14.50
9167;DHT22;4618;48.818;9.088;2023-06-26T07:04:35;25.20;14.70
9167;DHT22;4618;48.818;9.088;2023-06-26T07:07:01;25.30;12.40
9167;DHT22;4618;48.818;9.088;2023-06-26T07:09:26;25.20;12.90
9167;DHT22;4618;48.818;9.088;2023-06-26T07:11:52;25.30;11.50
9167;DHT22;4618;48.818;9.088;2023-06-26T07:14:17;25.50;9.60
9167;DHT22;4618;48.818;9.088;2023-06-26T07:16:43;25.60;7.80
9167;DHT22;4618;48.818;9.088;2023-06-26T07:19:08;25.80;7.10
9167;DHT22;4618;48.818;9.088;2023-06-26T07:21:34;26.00;5.50
9167;DHT22;4618;48.818;9.088;2023-06-26T07:23:59;26.20;3.30
9167;DHT22;4618;48.818;9.088;2023-06-26T07:26:25;26.60;2.60
9167;DHT22;4618;48.818;9.088;2023-06-26T07:28:50;26.90;2.10
9167;DHT22;4618;48.818;9.088;2023-06-26T07:31:16;27.30;1.00
9167;DHT22;4618;48.818;9.088;2023-06-26T07:33:42;27.60;1.00
9167;DHT22;4618;48.818;9.088;2023-06-26T07:36:07;28.00;1.00
9167;DHT22;4618;48.818;9.088;2023-06-26T07:38:33;28.30;1.00
9167;DHT22;4618;48.818;9.088;2023-06-26T07:40:58;28.60;1.00
9167;DHT22;4618;48.818;9.088;2023-06-26T07:43:24;29.00;1.00
9167;DHT22;4618;48.818;9.088;2023-06-26T07:45:49;29.30;1.00
9167;DHT22;4618;48.818;9.088;2023-06-26T07:48:16;29.50;1.00
9167;DHT22;4618;48.818;9.088;2023-06-26T07:50:42;30.10;1.00
9167;DHT22;4618;48.818;9.088;2023-06-26T07:53:08;30.60;1.00
9167;DHT22;4618;48.818;9.088;2023-06-26T07:55:33;30.80;1.00
9167;DHT22;4618;48.818;9.088;2023-06-26T07:57:59;31.20;99.90
9167;DHT22;4618;48.818;9.088;2023-06-26T08:00:25;31.10;1.00
9167;DHT22;4618;48.818;9.088;2023-06-26T08:02:51;31.50;99.90
9167;DHT22;4618;48.818;9.088;2023-06-26T08:05:17;31.70;99.90
9167;DHT22;4618;48.818;9.088;2023-06-26T08:07:42;32.00;99.90
9167;DHT22;4618;48.818;9.088;2023-06-26T08:12:34;32.20;1.00
9167;DHT22;4618;48.818;9.088;2023-06-26T08:15:00;32.50;1.00
9167;DHT22;4618;48.818;9.088;2023-06-26T08:17:28;32.50;1.00
9167;DHT22;4618;48.818;9.088;2023-06-26T08:19:53;32.30;1.00
9167;DHT22;4618;48.818;9.088;2023-06-26T08:22:19;32.00;1.00
9167;DHT22;4618;48.818;9.088;2023-06-26T08:24:44;31.90;1.00
9167;DHT22;4618;48.818;9.088;2023-06-26T08:27:10;32.00;1.00
9167;DHT22;4618;48.818;9.088;2023-06-26T08:29:35;31.90;1.00
9167;DHT22;4618;48.818;9.088;2023-06-26T08:32:01;32.10;1.00
9167;DHT22;4618;48.818;9.088;2023-06-26T08:34:27;32.40;1.00
9167;DHT22;4618;48.818;9.088;2023-06-26T08:36:53;32.10;1.00
9167;DHT22;4618;48.818;9.088;2023-06-26T08:39:18;32.20;1.00
9167;DHT22;4618;48.818;9.088;2023-06-26T08:41:44;32.40;1.00
9167;DHT22;4618;48.818;9.088;2023-06-26T08:44:10;32.50;1.00
9167;DHT22;4618;48.818;9.088;2023-06-26T08:46:36;32.50;1.00
9167;DHT22;4618;48.818;9.088;2023-06-26T08:49:11;32.30;1.00
9167;DHT22;4618;48.818;9.088;2023-06-26T08:51:45;32.30;1.00
9167;DHT22;4618;48.818;9.088;2023-06-26T08:54:12;32.30;1.00
9167;DHT22;4618;48.818;9.088;2023-06-26T08:56:42;32.40;1.00
9167;DHT22;4618;48.818;9.088;2023-06-26T08:59:08;32.70;1.00
9167;DHT22;4618;48.818;9.088;2023-06-26T09:01:37;33.00;1.00
9167;DHT22;4618;48.818;9.088;2023-06-26T09:04:02;33.30;1.00
9167;DHT22;4618;48.818;9.088;2023-06-26T09:06:28;34.10;1.00
9167;DHT22;4618;48.818;9.088;2023-06-26T09:11:20;34.40;1.00
9167;DHT22;4618;48.818;9.088;2023-06-26T09:13:45;34.40;1.00
9167;DHT22;4618;48.818;9.088;2023-06-26T09:16:12;34.40;31.60
9167;DHT22;4618;48.818;9.088;2023-06-26T09:18:40;34.60;46.20
9167;DHT22;4618;48.818;9.088;2023-06-26T09:21:08;34.80;40.80
9167;DHT22;4618;48.818;9.088;2023-06-26T09:23:34;34.60;50.90
9167;DHT22;4618;48.818;9.088;2023-06-26T09:26:03;34.70;50.40
9167;DHT22;4618;48.818;9.088;2023-06-26T09:28:30;34.70;97.40
9167;DHT22;4618;48.818;9.088;2023-06-26T09:31:03;34.30;99.90
9167;DHT22;4618;48.818;9.088;2023-06-26T09:33:33;34.10;10.50
9167;DHT22;4618;48.818;9.088;2023-06-26T09:36:01;33.10;1.00
9167;DHT22;4618;48.818;9.088;2023-06-26T09:38:27;32.60;1.00
9167;DHT22;4618;48.818;9.088;2023-06-26T09:40:52;32.60;1.00
9167;DHT22;4618;48.818;9.088;2023-06-26T09:43:18;33.00;1.00
9167;DHT22;4618;48.818;9.088;2023-06-26T09:45:44;33.80;1.00
9167;DHT22;4618;48.818;9.088;2023-06-26T09:48:10;34.50;1.00
9167;DHT22;4618;48.818;9.088;2023-06-26T09:50:37;34.30;1.00
9167;DHT22;4618;48.818;9.088;2023-06-26T09:53:13;33.60;1.00
9167;DHT22;4618;48.818;9.088;2023-06-26T09:55:39;33.80;1.00
9167;DHT22;4618;48.818;9.088;2023-06-26T09:58:10;34.20;1.00
9167;DHT22;4618;48.818;9.088;2023-06-26T10:00:42;34.60;1.00
9167;DHT22;4618;48.818;9.088;2023-06-26T10:03:09;34.60;1.00
9167;DHT22;4618;48.818;9.088;2023-06-26T10:05:35;34.70;1.00
9167;DHT22;4618;48.818;9.088;2023-06-26T10:08:01;34.80;1.00
9167;DHT22;4618;48.818;9.088;2023-06-26T10:10:27;34.90;1.00
9167;DHT22;4618;48.818;9.088;2023-06-26T10:13:02;34.30;1.00
9167;DHT22;4618;48.818;9.088;2023-06-26T10:15:30;33.60;1.00
9167;DHT22;4618;48.818;9.088;2023-06-26T10:17:56;33.00;1.00
9167;DHT22;4618;48.818;9.088;2023-06-26T10:20:22;33.40;1.00
9167;DHT22;4618;48.818;9.088;2023-06-26T10:22:49;33.20;1.00
9167;DHT22;4618;48.818;9.088;2023-06-26T10:25:19;32.60;1.00
9167;DHT22;4618;48.818;9.088;2023-06-26T10:27:53;32.00;1.00
9167;DHT22;4618;48.818;9.088;2023-06-26T10:30:23;31.60;1.00
9167;DHT22;4618;48.818;9.088;2023-06-26T10:32:50;32.10;1.00
9167;DHT22;4618;48.818;9.088;2023-06-26T10:35:16;32.30;1.00
9167;DHT22;4618;48.818;9.088;2023-06-26T10:37:47;32.60;1.00
9167;DHT22;4618;48.818;9.088;2023-06-26T10:40:14;32.50;1.00
9167;DHT22;4618;48.818;9.088;2023-06-26T10:42:40;32.80;1.00
9167;DHT22;4618;48.818;9.088;2023-06-26T10:45:20;32.90;1.00
9167;DHT22;4618;48.818;9.088;2023-06-26T10:47:47;32.90;1.00
9167;DHT22;4618;48.818;9.088;2023-06-26T10:52:46;33.60;1.00
9167;DHT22;4618;48.818;9.088;2023-06-26T10:55:31;33.60;1.00
9167;DHT22;4618;48.818;9.088;2023-06-26T10:57:57;33.50;1.00
9167;DHT22;4618;48.818;9.088;2023-06-26T11:00:22;32.70;1.00
9167;DHT22;4618;48.818;9.088;2023-06-26T11:02:51;32.70;1.00
9167;DHT22;4618;48.818;9.088;2023-06-26T11:05:28;32.60;1.00
9167;DHT22;4618;48.818;9.088;2023-06-26T11:08:09;33.30;1.00
9167;DHT22;4618;48.818;9.088;2023-06-26T11:10:51;32.80;1.00
9167;DHT22;4618;48.818;9.088;2023-06-26T11:13:18;33.10;1.00
9167;DHT22;4618;48.818;9.088;2023-06-26T11:15:45;33.60;1.00
9167;DHT22;4618;48.818;9.088;2023-06-26T11:18:11;33.90;1.00
9167;DHT22;4618;48.818;9.088;2023-06-26T11:20:37;33.60;1.00
9167;DHT22;4618;48.818;9.088;2023-06-26T11:23:04;33.80;1.00
9167;DHT22;4618;48.818;9.088;2023-06-26T11:25:37;33.70;1.00
9167;DHT22;4618;48.818;9.088;2023-06-26T11:28:09;33.80;1.00
9167;DHT22;4618;48.818;9.088;2023-06-26T11:30:34;33.80;1.00
9167;DHT22;4618;48.818;9.088;2023-06-26T11:33:08;34.00;1.00
9167;DHT22;4618;48.818;9.088;2023-06-26T11:35:34;34.40;1.00
9167;DHT22;4618;48.818;9.088;2023-06-26T11:38:01;34.70;1.00
9167;DHT22;4618;48.818;9.088;2023-06-26T11:40:30;34.80;1.00
9167;DHT22;4618;48.818;9.088;2023-06-26T11:43:01;33.70;1.00
9167;DHT22;4618;48.818;9.088;2023-06-26T11:45:29;33.80;1.00
9167;DHT22;4618;48.818;9.088;2023-06-26T11:47:59;33.50;1.00
9167;DHT22;4618;48.818;9.088;2023-06-26T11:50:25;33.50;1.00
9167;DHT22;4618;48.818;9.088;2023-06-26T11:52:58;32.20;1.00
9167;DHT22;4618;48.818;9.088;2023-06-26T11:55:25;31.20;31.40
9167;DHT22;4618;48.818;9.088;2023-06-26T11:57:55;30.90;1.00
9167;DHT22;4618;48.818;9.088;2023-06-26T12:00:22;31.60;1.00
9167;DHT22;4618;48.818;9.088;2023-06-26T12:02:48;31.60;1.00
9167;DHT22;4618;48.818;9.088;2023-06-26T12:05:16;31.00;1.00
9167;DHT22;4618;48.818;9.088;2023-06-26T12:07:43;30.60;1.00
9167;DHT22;4618;48.818;9.088;2023-06-26T12:10:11;31.10;1.00
9167;DHT22;4618;48.818;9.088;2023-06-26T12:12:38;31.80;1.00
9167;DHT22;4618;48.818;9.088;2023-06-26T12:15:06;32.40;1.00
9167;DHT22;4618;48.818;9.088;2023-06-26T12:17:32;32.90;1.00
9167;DHT22;4618;48.818;9.088;2023-06-26T12:19:57;33.10;1.00
9167;DHT22;4618;48.818;9.088;2023-06-26T12:22:23;33.60;1.00
9167;DHT22;4618;48.818;9.088;2023-06-26T12:24:48;33.60;1.00
9167;DHT22;4618;48.818;9.088;2023-06-26T12:27:16;33.60;1.00
9167;DHT22;4618;48.818;9.088;2023-06-26T12:29:50;33.40;1.00
9167;DHT22;4618;48.818;9.088;2023-06-26T12:32:16;33.70;1.00
9167;DHT22;4618;48.818;9.088;2023-06-26T12:34:41;33.80;1.00
9167;DHT22;4618;48.818;9.088;2023-06-26T12:37:12;34.20;1.00
9167;DHT22;4618;48.818;9.088;2023-06-26T12:40:05;33.90;1.00
9167;DHT22;4618;48.818;9.088;2023-06-26T12:42:41;33.90;1.00
9167;DHT22;4618;48.818;9.088;2023-06-26T12:45:11;34.00;1.00
9167;DHT22;4618;48.818;9.088;2023-06-26T12:47:37;34.20;1.00
9167;DHT22;4618;48.818;9.088;2023-06-26T12:50:05;34.70;1.00
9167;DHT22;4618;48.818;9.088;2023-06-26T12:52:31;35.10;1.00
9167;DHT22;4618;48.818;9.088;2023-06-26T12:54:56;34.50;1.00
9167;DHT22;4618;48.818;9.088;2023-06-26T12:57:22;34.10;1.00
9167;DHT22;4618;48.818;9.088;2023-06-26T12:59:48;33.30;1.00
9167;DHT22;4618;48.818;9.088;2023-06-26T13:02:14;33.50;1.00
9167;DHT22;4618;48.818;9.088;2023-06-26T13:04:40;33.70;1.00
9167;DHT22;4618;48.818;9.088;2023-06-26T13:07:09;33.60;1.00
9167;DHT22;4618;48.818;9.088;2023-06-26T13:09:36;33.30;1.00
9167;DHT22;4618;48.818;9.088;2023-06-26T13:12:02;33.70;1.00
9167;DHT22;4618;48.818;9.088;2023-06-26T13:14:29;33.90;1.00
9167;DHT22;4618;48.818;9.088;2023-06-26T13:16:55;33.50;1.00
9167;DHT22;4618;48.818;9.088;2023-06-26T13:19:20;33.50;1.00
9167;DHT22;4618;48.818;9.088;2023-06-26T13:21:46;33.20;1.00
9167;DHT22;4618;48.818;9.088;2023-06-26T13:24:11;33.30;1.00
9167;DHT22;4618;48.818;9.088;2023-06-26T13:26:38;33.10;1.00
9167;DHT22;4618;48.818;9.088;2023-06-26T13:29:04;33.40;1.00
9167;DHT22;4618;48.818;9.088;2023-06-26T13:31:29;33.20;1.00
9167;DHT22;4618;48.818;9.088;2023-06-26T13:34:01;33.40;1.00
9167;DHT22;4618;48.818;9.088;2023-06-26T13:36:29;33.10;1.00
9167;DHT22;4618;48.818;9.088;2023-06-26T13:38:54;32.80;1.00
9167;DHT22;4618;48.818;9.088;2023-06-26T13:41:23;32.60;1.00
9167;DHT22;4618;48.818;9.088;2023-06-26T13:43:48;32.90;1.00
9167;DHT22;4618;48.818;9.088;2023-06-26T13:46:15;32.60;1.00
9167;DHT22;4618;48.818;9.088;2023-06-26T13:48:41;32.20;1.00
9167;DHT22;4618;48.818;9.088;2023-06-26T13:51:07;31.70;1.00
9167;DHT22;4618;48.818;9.088;2023-06-26T13:53:32;31.60;1.00
9167;DHT22;4618;48.818;9.088;2023-06-26T13:55:58;31.90;1.00
9167;DHT22;4618;48.818;9.088;2023-06-26T13:58:23;32.10;1.00
9167;DHT22;4618;48.818;9.088;2023-06-26T14:00:52;32.90;1.00
9167;DHT22;4618;48.818;9.088;2023-06-26T14:03:18;32.80;1.00
9167;DHT22;4618;48.818;9.088;2023-06-26T14:05:43;32.70;1.00
9167;DHT22;4618;48.818;9.088;2023-06-26T14:08:09;32.60;1.00
9167;DHT22;4618;48.818;9.088;2023-06-26T14:10:36;32.80;1.00
9167;DHT22;4618;48.818;9.088;2023-06-26T14:13:02;32.50;1.00
9167;DHT22;4618;48.818;9.088;2023-06-26T14:15:28;32.00;1.00
9167;DHT22;4618;48.818;9.088;2023-06-26T14:17:54;31.70;1.00
9167;DHT22;4618;48.818;9.088;2023-06-26T14:20:21;31.80;1.00
9167;DHT22;4618;48.818;9.088;2023-06-26T14:22:48;32.30;1.00
9167;DHT22;4618;48.818;9.088;2023-06-26T14:25:14;32.50;1.00
9167;DHT22;4618;48.818;9.088;2023-06-26T14:27:40;32.20;1.00
9167;DHT22;4618;48.818;9.088;2023-06-26T14:30:07;32.10;1.00
9167;DHT22;4618;48.818;9.088;2023-06-26T14:32:33;31.60;1.00
9167;DHT22;4618;48.818;9.088;2023-06-26T14:34:59;32.10;1.00
9167;DHT22;4618;48.818;9.088;2023-06-26T14:37:29;32.60;1.00
9167;DHT22;4618;48.818;9.088;2023-06-26T14:39:56;32.50;1.00
9167;DHT22;4618;48.818;9.088;2023-06-26T14:42:21;32.60;1.00
9167;DHT22;4618;48.818;9.088;2023-06-26T14:44:47;32.00;1.00
9167;DHT22;4618;48.818;9.088;2023-06-26T14:47:16;31.70;1.00
9167;DHT22;4618;48.818;9.088;2023-06-26T14:49:42;31.70;1.00
9167;DHT22;4618;48.818;9.088;2023-06-26T14:52:08;31.40;1.00
9167;DHT22;4618;48.818;9.088;2023-06-26T14:54:34;31.40;1.00
9167;DHT22;4618;48.818;9.088;2023-06-26T14:57:02;31.30;1.00
9167;DHT22;4618;48.818;9.088;2023-06-26T14:59:28;31.40;1.00
9167;DHT22;4618;48.818;9.088;2023-06-26T15:01:53;31.20;1.00
9167;DHT22;4618;48.818;9.088;2023-06-26T15:04:19;30.40;1.00
9167;DHT22;4618;48.818;9.088;2023-06-26T15:06:44;30.40;1.00
9167;DHT22;4618;48.818;9.088;2023-06-26T15:09:10;30.20;1.00
9167;DHT22;4618;48.818;9.088;2023-06-26T15:11:36;30.40;1.00
9167;DHT22;4618;48.818;9.088;2023-06-26T15:14:01;30.50;5.20
9167;DHT22;4618;48.818;9.088;2023-06-26T15:16:27;30.70;8.30
9167;DHT22;4618;48.818;9.088;2023-06-26T15:18:52;30.70;19.10
9167;DHT22;4618;48.818;9.088;2023-06-26T15:21:18;30.10;85.70
9167;DHT22;4618;48.818;9.088;2023-06-26T15:23:45;30.00;99.90
9167;DHT22;4618;48.818;9.088;2023-06-26T15:26:11;30.00;99.90
9167;DHT22;4618;48.818;9.088;2023-06-26T15:28:36;29.60;1.00
9167;DHT22;4618;48.818;9.088;2023-06-26T15:31:02;29.50;1.00
9167;DHT22;4618;48.818;9.088;2023-06-26T15:33:27;30.10;1.00
9167;DHT22;4618;48.818;9.088;2023-06-26T15:35:53;29.60;1.00
9167;DHT22;4618;48.818;9.088;2023-06-26T15:38:19;29.30;1.00
9167;DHT22;4618;48.818;9.088;2023-06-26T15:40:44;29.70;1.00
9167;DHT22;4618;48.818;9.088;2023-06-26T15:43:10;29.90;1.00
9167;DHT22;4618;48.818;9.088;2023-06-26T15:45:35;30.20;1.00
9167;DHT22;4618;48.818;9.088;2023-06-26T15:48:01;30.40;1.00
9167;DHT22;4618;48.818;9.088;2023-06-26T15:50:26;30.20;1.00
9167;DHT22;4618;48.818;9.088;2023-06-26T15:52:53;29.90;1.00
9167;DHT22;4618;48.818;9.088;2023-06-26T15:55:19;29.30;1.00
9167;DHT22;4618;48.818;9.088;2023-06-26T15:57:44;28.80;1.00
9167;DHT22;4618;48.818;9.088;2023-06-26T16:00:10;28.80;1.00
9167;DHT22;4618;48.818;9.088;2023-06-26T16:02:37;28.30;1.00
9167;DHT22;4618;48.818;9.088;2023-06-26T16:05:04;27.90;1.00
9167;DHT22;4618;48.818;9.088;2023-06-26T16:07:29;27.80;1.00
9167;DHT22;4618;48.818;9.088;2023-06-26T16:09:56;27.80;1.00
9167;DHT22;4618;48.818;9.088;2023-06-26T16:12:22;27.80;1.00
9167;DHT22;4618;48.818;9.088;2023-06-26T16:14:47;27.70;1.00
9167;DHT22;4618;48.818;9.088;2023-06-26T16:17:13;27.80;1.00